Main page
METAR-TAF:

METAR-TAF

Airports :

Dakar, Senegal

Léopold Sédar Senghor International Airport

latitude: 14-44N, longitude: 017-30W, elevation: 27 m

Current weather observation

The report was made 32 minutes ago, at 19:00 UTC
Wind 12 kt from the North
Temperature 22°C
Humidity 73%
Pressure 1014 hPa
Visibility: 8000 m

METAR: GOOY 171900Z 36012KT 8000 NSC 22/17 Q1014

Time: 19:32 (19:32 UTC)

Forecast

The report was made 2 hours and 2 minutes ago, at 17:30 UTC
Forecast valid from 17 at 18 UTC to 18 at 24 UTC
Wind 14 kt from the North/Northeast
Visibility: 8000 m

TAF: GOOY 171730Z 1718/1824 03014KT 8000 NSC

Weather observations and forecasts of more than 4000 airports (METAR and TAF reports).

The available stations are represented by yellow and red dots on the map.

Hover mouse over dot to see the name of the station.

Then click to see weather observations and forecasts.

To change the map : click on the green buttons with a black cross to zoom in, on the green button with a dash to zoom out, or on the green arrows for adjacent maps.


METAR-TAF: